KDCU/DCU METAR and TAF weather

Enter ICAO airport designator
Station Type Date Time Source
KDCU METAR 2018/07/16 23:53 UTC NOAA

KDCU 162353Z AUTO 24004KT 10SM SCT036 29/23 A2998 RMK AO2 SLP144 T02890228 10300 20261 53004


Station Type Date Time Source
KDCU Decoded METAR 2018/07/16 23:53 UTC NOAA

PRYOR FIELD, AL, United States (KDCU) 34-39N 086-57W 176M
Jul 16, 2018 - 07:53 PM EDT / 2018.07.16 2353 UTC
Wind: from the WSW (240 degrees) at 5 MPH (4 KT):0
Visibility: 10 mile(s):0
Sky conditions: partly cloudy
Temperature: 84.0 F (28.9 C)
Dew Point: 73.0 F (22.8 C)
Relative Humidity: 69%
Pressure (altimeter): 29.98 in. Hg (1015 hPa)
Pressure tendency: 0.01 inches (0.4 hPa) higher than three hours ago
ob: KDCU 162353Z AUTO 24004KT 10SM SCT036 29/23 A2998 RMK AO2 SLP144 T02890228 10300 20261 53004
cycle: 0

Station Type Date Time Source
KDCU TAF UTC NOAA

Error!


Example: see airport list